Time;durP1;ratioP1;P1;durP2;ratioP2;P2;SDS_P1;SDS_P2;PMS_P1;PMS_P2;Temp;Humidity;BMP_temperature;BMP_pressure;BME280_temperature;BME280_humidity;BME280_pressure;Samples;Min_cycle;Max_cycle;Signal;HPM_P1;HPM_P2
2023/11/27 00:00:23;;;;;;;31.90;16.00;;;;;;;-2.39;90.44;99620.70;131570;1290;24733;-83
2023/11/27 00:03:24;;;;;;;34.00;16.40;;;;;;;-2.36;90.59;99618.77;131696;1298;24368;-80
2023/11/27 00:06:24;;;;;;;30.90;15.90;;;;;;;-2.33;90.70;99617.88;131654;1298;22601;-80
2023/11/27 00:09:25;;;;;;;33.00;17.80;;;;;;;-2.29;90.92;99615.05;131213;1298;22554;-80
2023/11/27 00:12:26;;;;;;;34.20;17.60;;;;;;;-2.27;90.64;99616.98;131398;1290;22600;-81
2023/11/27 00:15:27;;;;;;;34.50;15.00;;;;;;;-2.25;90.69;99619.14;131653;1295;22602;-81
2023/11/27 00:18:28;;;;;;;;;;;;;;;-2.23;90.62;99626.14;131425;1298;25497;-81
2023/11/27 00:21:28;;;;;;;28.90;15.50;;;;;;;-2.22;90.68;99620.31;131502;1294;24351;-84
2023/11/27 00:24:29;;;;;;;33.60;17.50;;;;;;;-2.19;90.65;99614.06;131332;1297;25325;-82
2023/11/27 00:27:29;;;;;;;31.40;18.00;;;;;;;-2.16;90.68;99613.23;131341;1291;23025;-80
2023/11/27 00:30:30;;;;;;;32.10;18.30;;;;;;;-2.15;90.75;99607.94;131297;1298;22691;-81
2023/11/27 00:33:32;;;;;;;28.40;15.70;;;;;;;-2.13;90.63;99609.89;131636;1294;23458;-80
2023/11/27 00:36:32;;;;;;;30.10;16.70;;;;;;;-2.10;91.13;99606.74;131626;1298;22553;-82
2023/11/27 00:39:32;;;;;;;37.00;18.60;;;;;;;-2.08;90.92;99607.09;131514;1297;22636;-81
2023/11/27 00:42:33;;;;;;;35.70;19.30;;;;;;;-2.06;90.64;99607.88;131599;1297;25601;-82
2023/11/27 00:45:34;;;;;;;40.70;21.40;;;;;;;-2.04;90.61;99606.33;131080;1297;22605;-83
2023/11/27 00:48:34;;;;;;;;;;;;;;;-2.03;90.73;99600.39;131233;1298;22646;-79
2023/11/27 00:51:35;;;;;;;44.40;20.80;;;;;;;-2.04;90.83;99597.98;131436;1298;24734;-81
2023/11/27 00:54:35;;;;;;;40.10;18.50;;;;;;;-2.04;90.65;99603.54;131567;1298;22670;-82
2023/11/27 00:57:36;;;;;;;31.20;17.40;;;;;;;-2.03;90.48;99601.09;131134;1298;22687;-81
2023/11/27 01:00:36;;;;;;;39.10;17.80;;;;;;;-2.03;90.56;99601.63;131470;1298;22566;-82
2023/11/27 01:03:37;;;;;;;35.20;17.70;;;;;;;-2.03;90.80;99600.20;131115;1301;22582;-81
2023/11/27 01:06:38;;;;;;;36.40;17.70;;;;;;;-2.04;90.46;99601.63;131411;1289;23268;-84
2023/11/27 01:09:40;;;;;;;38.20;19.90;;;;;;;-2.07;90.86;99595.11;131440;1298;22783;-80
2023/11/27 01:12:43;;;;;;;33.60;19.10;;;;;;;-2.09;90.70;99593.15;131148;1298;24419;-84
2023/11/27 01:15:43;;;;;;;35.60;18.30;;;;;;;-2.12;90.81;99595.23;131182;1297;22722;-80
2023/11/27 01:18:44;;;;;;;38.80;19.70;;;;;;;-2.13;90.76;99596.91;131232;1298;25497;-80
2023/11/27 01:21:44;;;;;;;33.70;19.00;;;;;;;-2.17;90.44;99592.11;131458;1297;22566;-80
2023/11/27 01:24:45;;;;;;;36.90;18.00;;;;;;;-2.20;90.46;99592.30;131292;1298;22559;-81
2023/11/27 01:27:45;;;;;;;35.60;17.40;;;;;;;-2.24;90.47;99589.59;131266;1296;24180;-83
2023/11/27 01:30:46;;;;;;;35.70;18.60;;;;;;;-2.29;90.55;99589.73;131407;1298;23911;-85
2023/11/27 01:33:46;;;;;;;31.10;16.40;;;;;;;-2.34;90.44;99586.99;131207;1299;25275;-80
2023/11/27 01:36:47;;;;;;;33.30;16.00;;;;;;;-2.39;90.45;99587.13;131525;1297;24004;-82
2023/11/27 01:39:47;;;;;;;30.20;16.00;;;;;;;-2.42;90.50;99586.12;131294;1301;22573;-80
2023/11/27 01:42:48;;;;;;;29.90;16.30;;;;;;;-2.46;90.11;99586.86;131298;1298;22591;-83
2023/11/27 01:46:04;;;;;;;30.50;16.20;;;;;;;-2.47;90.49;99592.33;131426;1298;22563;-81
2023/11/27 01:49:05;;;;;;;22.10;12.40;;;;;;;-2.51;90.19;99589.92;131396;1299;22606;-82
2023/11/27 01:52:07;;;;;;;26.30;13.70;;;;;;;-2.54;90.12;99595.01;131631;1298;22742;-81
2023/11/27 01:55:11;;;;;;;26.40;13.90;;;;;;;-2.56;90.15;99593.04;131589;1289;23262;-80
2023/11/27 01:58:12;;;;;;;24.60;12.90;;;;;;;-2.58;90.28;99587.95;131958;1287;22679;-82
2023/11/27 02:01:12;;;;;;;25.10;13.60;;;;;;;-2.59;90.36;99588.41;131372;1298;23925;-82
2023/11/27 02:04:13;;;;;;;18.80;11.70;;;;;;;-2.64;89.91;99584.52;131282;1292;23967;-81
2023/11/27 02:07:14;;;;;;;20.10;12.20;;;;;;;-2.68;90.20;99579.95;131245;1298;25173;-80
2023/11/27 02:10:14;;;;;;;20.30;11.00;;;;;;;-2.72;90.09;99577.56;131273;1299;23970;-80
2023/11/27 02:13:15;;;;;;;18.30;10.90;;;;;;;-2.75;89.97;99582.95;131333;1298;23387;-82
2023/11/27 02:16:16;;;;;;;24.90;11.90;;;;;;;-2.80;90.15;99582.93;131145;1298;193632;-81
2023/11/27 02:19:17;;;;;;;18.20;10.30;;;;;;;-2.83;89.91;99585.00;131169;1298;22727;-81
2023/11/27 02:22:17;;;;;;;19.00;10.50;;;;;;;-2.86;89.90;99587.46;131266;1297;22642;-80
2023/11/27 02:25:18;;;;;;;19.50;10.50;;;;;;;-2.89;89.90;99582.80;131326;1298;22564;-83
2023/11/27 02:28:19;;;;;;;22.20;10.30;;;;;;;-2.92;90.02;99581.92;131635;1299;22564;-80
2023/11/27 02:31:19;;;;;;;19.40;10.90;;;;;;;-2.92;90.14;99583.68;131321;1298;22574;-81
2023/11/27 02:34:19;;;;;;;18.70;9.80;;;;;;;-2.92;89.94;99582.48;131665;1296;22595;-80
2023/11/27 02:37:20;;;;;;;23.40;10.40;;;;;;;-2.94;90.10;99575.31;131377;1298;23515;-81
2023/11/27 02:40:21;;;;;;;20.90;10.90;;;;;;;-2.99;90.10;99577.52;131198;1301;25364;-80
2023/11/27 02:43:21;;;;;;;18.50;11.00;;;;;;;-3.01;90.07;99571.42;131342;1295;25308;-83
2023/11/27 02:46:22;;;;;;;20.10;10.40;;;;;;;-3.05;90.02;99570.96;131573;1298;22632;-81
2023/11/27 02:49:23;;;;;;;17.40;11.00;;;;;;;-3.08;90.08;99569.07;131589;1288;22725;-79
2023/11/27 02:52:23;;;;;;;20.30;11.30;;;;;;;-3.12;90.12;99562.56;131587;1293;24788;-82
2023/11/27 02:55:27;;;;;;;25.80;11.00;;;;;;;-3.17;90.11;99554.92;131231;1298;25498;-81
2023/11/27 02:58:27;;;;;;;23.30;10.70;;;;;;;-3.21;90.00;99552.53;131125;1297;22562;-81
2023/11/27 03:01:28;;;;;;;21.40;11.10;;;;;;;-3.24;90.06;99545.82;131443;1298;23212;-80
2023/11/27 03:04:30;;;;;;;19.40;10.80;;;;;;;-3.28;89.73;99546.03;131250;1289;22734;-80
2023/11/27 03:07:31;;;;;;;31.00;14.00;;;;;;;-3.35;89.47;99548.41;131524;1298;24419;-80
2023/11/27 03:10:31;;;;;;;36.10;16.20;;;;;;;-3.42;89.78;99544.99;131219;1297;22585;-83
2023/11/27 03:13:32;;;;;;;31.80;16.20;;;;;;;-3.47;89.69;99548.06;131520;1285;25355;-82
2023/11/27 03:16:32;;;;;;;30.10;14.80;;;;;;;-3.51;89.52;99541.89;131468;1290;22586;-82
2023/11/27 03:19:37;;;;;;;22.50;12.80;;;;;;;-3.52;89.77;99543.20;131394;1298;23458;-80
2023/11/27 03:22:39;;;;;;;24.80;12.30;;;;;;;-3.54;89.37;99544.50;131358;1297;22990;-79
2023/11/27 03:25:39;;;;;;;23.60;11.70;;;;;;;-3.57;89.67;99542.78;131405;1298;22583;-82
2023/11/27 03:28:41;;;;;;;26.10;14.30;;;;;;;-3.58;89.66;99537.48;131171;1295;22721;-84
2023/11/27 03:31:42;;;;;;;27.30;15.10;;;;;;;-3.61;89.85;99537.64;131564;1291;22559;-83
2023/11/27 03:34:43;;;;;;;28.90;15.70;;;;;;;-3.63;89.65;99534.01;131538;1297;22608;-85
2023/11/27 03:37:44;;;;;;;33.70;15.40;;;;;;;-3.66;89.69;99533.45;131594;1298;22583;-82
2023/11/27 03:40:44;;;;;;;36.20;18.50;;;;;;;-3.68;89.85;99530.95;131707;1298;27098;-80
2023/11/27 03:43:45;;;;;;;26.60;13.20;;;;;;;-3.70;89.81;99523.17;131375;1297;24247;-84
2023/11/27 03:46:45;;;;;;;26.00;14.10;;;;;;;-3.73;89.81;99527.98;131429;1291;23115;-85
2023/11/27 03:49:45;;;;;;;28.20;14.50;;;;;;;-3.78;89.35;99529.67;131375;1293;24012;-82
2023/11/27 03:52:47;;;;;;;36.50;17.00;;;;;;;-3.85;89.43;99530.58;131553;1291;22639;-83
2023/11/27 03:55:48;;;;;;;31.20;15.40;;;;;;;-3.89;89.46;99529.97;131216;1298;22598;-82
2023/11/27 03:58:49;;;;;;;27.20;14.40;;;;;;;-3.93;89.55;99527.76;131544;1297;26572;-81
2023/11/27 04:01:50;;;;;;;;;;;;;;;-3.96;89.44;99523.78;131701;1289;22650;-80
2023/11/27 04:04:50;;;;;;;28.80;13.60;;;;;;;-4.01;89.27;99520.65;131338;1303;22623;-82
2023/11/27 04:07:51;;;;;;;23.50;12.60;;;;;;;-4.06;89.21;99518.70;131489;1298;22602;-80
2023/11/27 04:10:52;;;;;;;20.90;12.00;;;;;;;-4.08;89.46;99517.98;131467;1299;23371;-81
2023/11/27 04:14:00;;;;;;;24.20;12.00;;;;;;;-4.12;89.43;99520.42;131562;1298;22587;-80
2023/11/27 04:17:03;;;;;;;24.40;14.40;;;;;;;-4.16;89.69;99527.03;131270;1298;22632;-80
2023/11/27 04:20:06;;;;;;;22.90;12.40;;;;;;;-4.19;89.61;99531.02;131118;1298;22568;-82
2023/11/27 04:23:07;;;;;;;20.40;11.90;;;;;;;-4.24;89.49;99521.77;131092;1298;22587;-80
2023/11/27 04:26:07;;;;;;;17.20;11.30;;;;;;;-4.32;89.32;99523.45;131159;1298;22575;-81
2023/11/27 04:29:08;;;;;;;20.30;11.30;;;;;;;-4.38;89.30;99527.08;131426;1297;25416;-81
2023/11/27 04:32:08;;;;;;;18.00;11.20;;;;;;;-4.44;89.46;99527.58;131461;1298;25326;-80
2023/11/27 04:35:09;;;;;;;;;;;;;;;-4.44;89.55;99530.03;131553;1297;25990;-81
2023/11/27 04:38:10;;;;;;;17.90;10.80;;;;;;;-4.46;89.64;99524.43;131310;1298;23776;-81
2023/11/27 04:41:10;;;;;;;;;;;;;;;-4.46;89.58;99518.21;131156;1300;22588;-82
2023/11/27 04:44:11;;;;;;;23.50;11.90;;;;;;;-4.44;89.91;99510.88;131405;1299;22677;-82
2023/11/27 04:47:11;;;;;;;23.20;13.20;;;;;;;-4.43;90.02;99506.11;131559;1298;22595;-83
2023/11/27 04:50:12;;;;;;;27.30;15.60;;;;;;;-4.41;90.14;99501.17;131337;1298;22614;-83
2023/11/27 04:53:13;;;;;;;29.70;15.80;;;;;;;-4.42;90.07;99496.91;131706;1298;22661;-82
2023/11/27 04:56:13;;;;;;;31.10;15.50;;;;;;;-4.44;90.09;99499.81;131434;1297;22614;-81
2023/11/27 04:59:14;;;;;;;28.90;15.40;;;;;;;-4.46;90.08;99499.61;131357;1298;22765;-80
2023/11/27 05:02:17;;;;;;;25.60;14.40;;;;;;;-4.51;89.73;99502.39;131677;1292;23370;-84
2023/11/27 05:05:18;;;;;;;25.10;14.10;;;;;;;-4.55;89.74;99505.74;131472;1291;25548;-80
2023/11/27 05:08:19;;;;;;;26.00;13.60;;;;;;;-4.60;89.65;99506.74;131405;1298;22637;-81
2023/11/27 05:11:19;;;;;;;;;;;;;;;-4.64;89.46;99510.23;131709;1298;24454;-79
2023/11/27 05:14:20;;;;;;;25.90;14.00;;;;;;;-4.69;89.86;99508.77;131726;1289;22583;-80
2023/11/27 05:17:20;;;;;;;25.60;13.70;;;;;;;-4.72;89.80;99507.39;131354;1297;22585;-83
2023/11/27 05:20:22;;;;;;;25.70;14.40;;;;;;;-4.74;89.84;99507.66;131560;1298;22701;-81
2023/11/27 05:23:22;;;;;;;25.00;14.30;;;;;;;-4.74;89.89;99508.90;131483;1288;22712;-79
2023/11/27 05:26:23;;;;;;;26.40;13.40;;;;;;;-4.73;90.08;99504.52;131159;1294;22559;-80
2023/11/27 05:29:24;;;;;;;26.10;13.60;;;;;;;-4.72;90.09;99503.11;131541;1298;22567;-85
2023/11/27 05:32:25;;;;;;;26.40;14.30;;;;;;;-4.72;90.18;99498.60;131597;1298;22573;-79
2023/11/27 05:35:26;;;;;;;27.50;13.70;;;;;;;-4.74;90.31;99498.33;131628;1297;23048;-81
2023/11/27 05:38:26;;;;;;;;;;;;;;;-4.75;90.07;99497.87;131666;1289;22661;-82
2023/11/27 05:41:27;;;;;;;27.70;13.90;;;;;;;-4.78;90.05;99503.09;131630;1293;25293;-84
2023/11/27 05:44:29;;;;;;;26.70;13.10;;;;;;;-4.85;90.22;99498.09;131750;1289;22583;-81
2023/11/27 05:47:30;;;;;;;25.50;14.50;;;;;;;-4.89;90.12;99493.34;131752;1295;22727;-84
2023/11/27 05:50:32;;;;;;;24.00;13.90;;;;;;;-4.92;90.36;99497.13;132095;1298;22570;-79
2023/11/27 05:53:33;;;;;;;23.00;14.20;;;;;;;-4.94;90.23;99501.55;131335;1298;22610;-79
2023/11/27 05:56:33;;;;;;;26.30;14.50;;;;;;;-4.99;90.09;99502.31;131363;1295;22719;-80
2023/11/27 05:59:34;;;;;;;25.10;14.50;;;;;;;-5.03;89.96;99511.16;131337;1298;22603;-79
2023/11/27 06:02:34;;;;;;;30.50;15.60;;;;;;;-5.06;89.95;99510.98;131701;1298;22968;-83
2023/11/27 06:05:35;;;;;;;25.00;14.20;;;;;;;-5.06;90.03;99508.58;131696;1296;25446;-82
2023/11/27 06:08:35;;;;;;;23.10;14.00;;;;;;;-5.05;90.26;99511.25;131706;1298;22651;-82
2023/11/27 06:11:36;;;;;;;23.30;13.30;;;;;;;-5.03;90.15;99511.33;131197;1299;22698;-82
2023/11/27 06:14:36;;;;;;;26.20;14.20;;;;;;;-5.02;90.22;99517.30;131347;1288;22563;-83
2023/11/27 06:17:37;;;;;;;24.20;13.70;;;;;;;-5.01;90.48;99519.50;131759;1301;25368;-81
2023/11/27 06:20:37;;;;;;;24.90;13.90;;;;;;;-4.99;90.42;99526.09;131688;1298;22587;-80
2023/11/27 06:23:38;;;;;;;25.30;13.40;;;;;;;-4.98;90.23;99517.09;131353;1295;23755;-81
2023/11/27 06:26:38;;;;;;;26.00;13.60;;;;;;;-4.99;90.06;99519.23;131581;1289;22759;-83
2023/11/27 06:29:39;;;;;;;23.10;13.90;;;;;;;-4.99;90.17;99513.16;131517;1294;25465;-83
2023/11/27 06:32:39;;;;;;;23.40;12.10;;;;;;;-4.96;90.15;99511.34;131615;1298;23908;-82
2023/11/27 06:35:40;;;;;;;23.80;12.80;;;;;;;-4.93;90.38;99512.86;131577;1289;22579;-83
2023/11/27 06:38:40;;;;;;;24.70;14.00;;;;;;;-4.91;90.30;99509.46;131310;1301;24241;-82
2023/11/27 06:41:41;;;;;;;27.20;13.90;;;;;;;-4.94;90.18;99509.14;131483;1298;23048;-83
2023/11/27 06:44:41;;;;;;;25.00;13.90;;;;;;;-4.91;90.61;99504.48;131451;1298;22552;-79
2023/11/27 06:47:42;;;;;;;26.20;14.80;;;;;;;-4.82;90.86;99499.15;131445;1298;25325;-80
2023/11/27 06:50:43;;;;;;;;;;;;;;;-4.71;90.96;99503.19;131557;1297;22656;-82
2023/11/27 06:53:43;;;;;;;34.40;18.30;;;;;;;-4.61;91.03;99505.55;131622;1288;22942;-82
2023/11/27 06:56:44;;;;;;;30.30;17.00;;;;;;;-4.55;91.04;99507.81;131632;1291;24289;-79
2023/11/27 06:59:44;;;;;;;34.20;17.00;;;;;;;-4.47;91.24;99503.22;131597;1295;23416;-80
2023/11/27 07:02:45;;;;;;;34.60;17.60;;;;;;;-4.39;91.24;99505.02;131654;1297;22632;-81
2023/11/27 07:05:45;;;;;;;33.80;18.20;;;;;;;-4.35;90.94;99504.63;131317;1295;22607;-83
2023/11/27 07:08:46;;;;;;;36.10;18.80;;;;;;;-4.31;91.25;99512.36;131523;1296;23145;-83
2023/11/27 07:11:49;;;;;;;30.80;14.40;;;;;;;-4.27;91.13;99516.63;131603;1298;22668;-81
2023/11/27 07:14:50;;;;;;;39.70;19.90;;;;;;;-4.29;91.03;99517.07;131622;1298;24254;-83
2023/11/27 07:17:50;;;;;;;52.60;25.00;;;;;;;-4.29;90.92;99518.09;131299;1298;22557;-82
2023/11/27 07:20:51;;;;;;;53.20;25.60;;;;;;;-4.23;91.22;99516.05;131287;1297;22555;-80
2023/11/27 07:23:53;;;;;;;40.70;20.30;;;;;;;-4.03;91.78;99512.67;131592;1297;22595;-83
2023/11/27 07:26:54;;;;;;;41.50;20.60;;;;;;;-3.78;91.97;99514.08;132007;1298;25519;-83
2023/11/27 07:29:55;;;;;;;34.60;19.00;;;;;;;-3.54;91.88;99506.27;131683;1298;22588;-80
2023/11/27 07:32:56;;;;;;;29.40;15.00;;;;;;;-3.29;91.93;99506.48;131604;1298;23340;-83
2023/11/27 07:35:56;;;;;;;27.20;15.40;;;;;;;-3.30;90.51;99504.52;131338;1301;22613;-81
2023/11/27 07:38:57;;;;;;;25.60;15.30;;;;;;;-3.29;90.73;99507.71;131524;1289;22598;-81
2023/11/27 07:41:57;;;;;;;28.00;14.90;;;;;;;-3.14;91.21;99508.17;131620;1298;24761;-79
2023/11/27 07:44:58;;;;;;;33.60;17.50;;;;;;;-2.91;91.93;99512.13;131331;1298;22617;-80
2023/11/27 07:47:59;;;;;;;29.30;16.40;;;;;;;-2.67;91.57;99506.13;131407;1291;22616;-82
2023/11/27 07:51:04;;;;;;;31.50;17.50;;;;;;;-2.47;91.73;99501.69;131697;1298;22606;-81
2023/11/27 07:54:05;;;;;;;35.40;17.20;;;;;;;-2.23;91.70;99496.66;131763;1292;22635;-84
2023/11/27 07:57:06;;;;;;;33.60;17.40;;;;;;;-1.93;91.69;99498.01;131383;1298;22605;-82
2023/11/27 08:00:11;;;;;;;;;;;;;;;-1.51;91.84;99495.16;131641;1298;23666;-83
2023/11/27 08:03:15;;;;;;;41.50;21.50;;;;;;;-1.01;92.27;99491.86;131408;1298;25959;-82
2023/11/27 08:06:16;;;;;;;44.40;22.00;;;;;;;-0.49;92.41;99481.45;131257;1292;23539;-85
2023/11/27 08:09:17;;;;;;;48.10;23.20;;;;;;;-0.02;91.59;99487.42;131521;1298;23164;-81
2023/11/27 08:12:18;;;;;;;36.80;22.10;;;;;;;0.43;91.58;99483.35;131581;1298;22597;-82
2023/11/27 08:15:19;;;;;;;38.90;21.20;;;;;;;0.90;91.38;99477.61;131989;1298;24420;-80
2023/11/27 08:18:19;;;;;;;38.60;20.90;;;;;;;1.29;90.63;99482.13;131247;1298;22524;-83
2023/11/27 08:21:20;;;;;;;44.10;21.40;;;;;;;1.64;90.08;99478.80;131566;1297;22680;-80
2023/11/27 08:24:20;;;;;;;43.70;21.90;;;;;;;1.90;89.27;99471.61;131049;1298;22586;-83
2023/11/27 08:27:26;;;;;;;25.20;15.60;;;;;;;2.20;88.80;99471.73;131428;1299;24858;-82
2023/11/27 08:30:29;;;;;;;24.70;14.40;;;;;;;2.36;87.24;99465.86;131652;1298;22572;-81
2023/11/27 08:33:29;;;;;;;26.10;16.30;;;;;;;2.61;87.56;99468.45;131201;1298;25523;-81
2023/11/27 08:36:32;;;;;;;25.40;14.70;;;;;;;2.86;87.21;99466.83;131482;1298;22583;-84
2023/11/27 08:39:32;;;;;;;26.00;14.30;;;;;;;3.01;85.80;99460.61;131284;1298;25433;-82
2023/11/27 08:42:37;;;;;;;25.70;12.70;;;;;;;3.17;85.27;99459.16;131572;1291;22546;-82
2023/11/27 08:45:37;;;;;;;22.80;13.30;;;;;;;3.36;85.28;99463.63;131602;1297;23088;-82
2023/11/27 08:48:38;;;;;;;;;;;;;;;3.36;83.06;99464.81;131749;1298;23383;-84
2023/11/27 08:51:44;;;;;;;21.90;11.40;;;;;;;3.35;82.60;99464.42;131522;1294;24415;-83
2023/11/27 08:54:46;;;;;;;21.90;11.50;;;;;;;3.14;80.60;99458.73;131371;1292;24406;-82
2023/11/27 08:57:47;;;;;;;19.30;11.00;;;;;;;3.02;81.93;99457.20;131594;1295;23210;-82
2023/11/27 09:00:48;;;;;;;;;;;;;;;3.27;82.41;99453.92;131670;1298;22558;-83
2023/11/27 09:03:50;;;;;;;20.30;12.10;;;;;;;3.43;82.18;99445.35;131668;1297;22642;-82
2023/11/27 09:06:51;;;;;;;25.00;14.10;;;;;;;3.68;82.30;99443.31;131710;1298;22549;-81
2023/11/27 09:09:51;;;;;;;15.80;9.80;;;;;;;3.93;82.02;99439.92;131656;1298;24380;-84
2023/11/27 09:12:52;;;;;;;17.50;11.20;;;;;;;4.11;81.81;99435.80;131305;1294;22651;-82
2023/11/27 09:15:52;;;;;;;23.30;12.70;;;;;;;4.35;81.36;99433.46;131263;1298;24237;-83
2023/11/27 09:18:53;;;;;;;21.70;12.00;;;;;;;4.47;79.86;99432.45;131667;1299;22579;-84
2023/11/27 09:21:55;;;;;;;;;;;;;;;4.47;79.64;99431.95;131260;1295;22562;-81
2023/11/27 09:24:55;;;;;;;19.70;10.10;;;;;;;4.54;79.34;99435.90;131653;1298;22628;-81
2023/11/27 09:27:57;;;;;;;18.50;10.00;;;;;;;4.65;79.35;99434.25;131625;1289;22780;-80
2023/11/27 09:30:57;;;;;;;16.80;10.30;;;;;;;4.79;78.22;99432.31;131202;1297;23150;-83
2023/11/27 09:33:58;;;;;;;14.60;9.80;;;;;;;4.79;77.97;99433.17;131461;1298;22560;-82
2023/11/27 09:36:58;;;;;;;17.00;9.30;;;;;;;4.84;76.82;99434.52;131271;1301;22783;-83
2023/11/27 09:39:59;;;;;;;16.20;9.10;;;;;;;4.84;76.02;99435.47;131698;1294;25284;-84
2023/11/27 09:43:00;;;;;;;;;;;;;;;4.85;76.17;99431.31;131716;1298;22564;-81
2023/11/27 09:46:06;;;;;;;13.90;7.90;;;;;;;4.84;75.16;99419.86;131568;1298;22568;-82
2023/11/27 09:49:10;;;;;;;15.60;9.00;;;;;;;4.78;74.84;99410.48;131562;1298;22560;-82
2023/11/27 09:52:15;;;;;;;19.00;9.80;;;;;;;4.91;75.53;99407.64;131566;1291;23087;-83
2023/11/27 09:55:18;;;;;;;20.70;12.60;;;;;;;5.02;74.89;99411.48;131625;1298;23238;-83
2023/11/27 09:58:21;;;;;;;14.60;9.20;;;;;;;5.09;74.94;99410.10;131575;1298;22609;-82
2023/11/27 10:01:27;;;;;;;17.50;9.40;;;;;;;5.14;74.06;99408.55;132067;1298;22585;-83
2023/11/27 10:04:30;;;;;;;18.20;9.50;;;;;;;5.02;73.10;99403.45;131650;1298;22675;-82
2023/11/27 10:07:34;;;;;;;15.00;8.90;;;;;;;4.92;73.36;99396.25;131572;1295;22553;-83
2023/11/27 10:10:35;;;;;;;18.10;9.70;;;;;;;4.97;72.75;99397.12;131615;1298;24248;-81
2023/11/27 10:13:35;;;;;;;16.70;9.80;;;;;;;4.94;72.64;99390.33;131649;1298;25322;-80
2023/11/27 10:16:37;;;;;;;15.70;8.50;;;;;;;5.03;73.18;99384.86;131547;1295;24285;-83
2023/11/27 10:19:40;;;;;;;19.70;10.90;;;;;;;5.15;72.44;99383.38;131483;1298;22613;-82
2023/11/27 10:22:42;;;;;;;20.60;12.20;;;;;;;5.08;72.28;99382.18;131531;1293;22635;-81
2023/11/27 10:25:42;;;;;;;38.90;18.20;;;;;;;5.07;71.99;99377.70;131567;1295;22566;-81
2023/11/27 10:28:45;;;;;;;19.90;11.80;;;;;;;5.04;71.22;99374.88;131179;1295;24305;-82
2023/11/27 10:31:46;;;;;;;18.60;11.60;;;;;;;5.00;71.08;99366.98;132063;1294;22614;-83
2023/11/27 10:34:46;;;;;;;19.00;10.70;;;;;;;4.91;69.86;99372.24;131481;1289;23012;-83
2023/11/27 10:37:49;;;;;;;22.00;12.00;;;;;;;4.78;70.85;99365.61;131430;1295;22646;-83
2023/11/27 10:40:51;;;;;;;16.90;9.40;;;;;;;4.84;70.62;99364.43;131419;1298;25347;-83
2023/11/27 10:43:52;;;;;;;17.70;9.80;;;;;;;4.80;70.60;99361.75;131479;1298;24231;-83
2023/11/27 10:46:53;;;;;;;16.00;8.60;;;;;;;4.88;70.65;99365.94;131196;1297;23341;-81
2023/11/27 10:49:56;;;;;;;12.30;7.70;;;;;;;4.82;68.45;99359.37;131524;1298;22578;-81
2023/11/27 10:52:58;;;;;;;18.90;9.20;;;;;;;4.60;69.00;99354.73;131524;1298;24320;-83
2023/11/27 10:56:01;;;;;;;13.60;8.60;;;;;;;4.65;69.57;99352.82;131577;1298;23065;-82
2023/11/27 10:59:05;;;;;;;12.30;7.70;;;;;;;4.65;68.96;99343.13;132304;1298;22585;-81
2023/11/27 11:02:09;;;;;;;14.20;8.30;;;;;;;4.46;67.87;99337.83;131198;1295;22675;-83
2023/11/27 11:05:14;;;;;;;12.60;7.40;;;;;;;4.31;68.57;99339.95;131517;1298;25366;-82
2023/11/27 11:08:29;;;;;;;12.00;7.50;;;;;;;4.27;68.33;99334.52;131267;1298;22649;-80
2023/11/27 11:11:30;;;;;;;15.00;8.10;;;;;;;4.09;67.71;99341.84;131581;1298;25329;-81
2023/11/27 11:14:32;;;;;;;12.50;6.60;;;;;;;3.97;68.64;99341.56;131346;1292;22655;-81
2023/11/27 11:17:34;;;;;;;9.70;5.90;;;;;;;3.90;68.62;99328.05;131457;1296;24270;-81
2023/11/27 11:21:05;;;;;;;13.60;6.90;;;;;;;3.70;66.77;99320.33;131682;1298;26532;-84
2023/11/27 11:24:18;;;;;;;21.10;6.70;;;;;;;3.37;67.07;99317.38;131731;1298;24310;-84
2023/11/27 11:27:34;;;;;;;14.90;7.60;;;;;;;3.22;67.07;99308.80;131616;1301;22660;-81
2023/11/27 11:30:35;;;;;;;9.20;5.60;;;;;;;3.06;67.18;99306.34;131604;1288;22611;-83
2023/11/27 11:33:35;;;;;;;26.10;15.30;;;;;;;3.02;67.72;99308.63;131410;1294;22564;-81
2023/11/27 11:36:36;;;;;;;10.20;5.90;;;;;;;3.01;67.06;99307.82;131926;1298;22491;-81
2023/11/27 11:39:36;;;;;;;9.00;5.60;;;;;;;2.92;66.46;99302.60;131536;1302;25300;-83
2023/11/27 11:42:39;;;;;;;7.80;5.20;;;;;;;2.76;66.25;99302.83;131619;1299;24772;-83
2023/11/27 11:45:41;;;;;;;12.90;8.50;;;;;;;2.56;66.35;99292.01;131625;1288;22598;-83
2023/11/27 11:48:43;;;;;;;9.30;5.20;;;;;;;2.49;66.75;99284.76;131302;1298;23601;-83
2023/11/27 11:52:15;;;;;;;8.30;5.00;;;;;;;2.46;66.56;99279.55;131303;1298;24091;-85
2023/11/27 11:55:32;;;;;;;7.10;4.30;;;;;;;2.39;66.93;99274.23;131443;1297;23299;-81
2023/11/27 11:58:34;;;;;;;11.50;5.60;;;;;;;2.26;65.46;99275.26;131342;1298;23489;-84
2023/11/27 12:01:41;;;;;;;11.40;5.40;;;;;;;2.08;65.54;99275.45;131354;1297;22560;-83
2023/11/27 12:04:41;;;;;;;8.00;4.40;;;;;;;2.01;66.11;99274.91;131651;1298;22666;-82
2023/11/27 12:07:44;;;;;;;7.80;4.60;;;;;;;2.02;66.16;99273.13;131670;1297;23119;-81
2023/11/27 12:10:51;;;;;;;8.20;4.80;;;;;;;2.09;66.55;99270.75;131762;1298;22597;-81
2023/11/27 12:13:52;;;;;;;11.40;5.40;;;;;;;2.18;66.67;99267.17;131697;1298;23193;-83
2023/11/27 12:16:53;;;;;;;7.60;5.40;;;;;;;2.23;66.38;99263.83;131705;1295;22572;-81
2023/11/27 12:19:54;;;;;;;10.80;6.10;;;;;;;2.28;66.42;99270.42;131732;1298;22661;-81
2023/11/27 12:22:54;;;;;;;9.90;6.00;;;;;;;2.29;66.22;99271.88;131771;1301;22610;-81
2023/11/27 12:25:55;;;;;;;12.80;6.10;;;;;;;2.27;66.13;99271.33;131390;1298;22617;-83
2023/11/27 12:28:55;;;;;;;9.00;5.70;;;;;;;2.20;65.99;99264.93;131415;1298;23377;-83
2023/11/27 12:31:56;;;;;;;10.80;5.40;;;;;;;2.08;65.88;99261.98;131666;1298;22570;-82
2023/11/27 12:34:57;;;;;;;11.60;5.80;;;;;;;1.98;65.96;99257.58;131387;1298;22563;-81
2023/11/27 12:38:05;;;;;;;13.50;6.00;;;;;;;1.87;65.92;99256.13;131659;1297;22570;-82
2023/11/27 12:41:09;;;;;;;8.20;5.70;;;;;;;1.81;66.08;99254.92;131264;1299;22595;-82
2023/11/27 12:44:18;;;;;;;11.00;5.90;;;;;;;1.80;66.29;99254.98;131320;1298;22560;-81
2023/11/27 12:47:19;;;;;;;9.80;5.40;;;;;;;1.84;66.35;99256.27;131267;1298;25442;-81
2023/11/27 12:50:23;;;;;;;8.50;5.10;;;;;;;1.82;66.21;99257.58;131517;1297;22559;-84
2023/11/27 12:53:24;;;;;;;9.50;4.90;;;;;;;1.79;66.61;99255.71;131628;1298;22614;-82
2023/11/27 12:56:24;;;;;;;8.60;4.60;;;;;;;1.77;66.22;99246.13;131477;1295;25310;-81
2023/11/27 12:59:25;;;;;;;6.50;4.30;;;;;;;1.70;66.19;99239.80;131214;1303;22602;-81
2023/11/27 13:02:29;;;;;;;7.00;4.20;;;;;;;1.62;65.70;99235.73;131187;1298;24246;-82
2023/11/27 13:05:31;;;;;;;7.40;4.30;;;;;;;1.54;66.22;99230.89;131472;1301;22607;-81
2023/11/27 13:08:32;;;;;;;8.70;5.20;;;;;;;1.46;65.91;99225.84;131422;1294;23080;-80
2023/11/27 13:11:32;;;;;;;11.20;5.30;;;;;;;1.30;66.14;99228.20;131230;1298;22560;-82
2023/11/27 13:14:36;;;;;;;14.40;6.50;;;;;;;1.13;66.22;99225.64;131519;1297;22621;-85
2023/11/27 13:17:39;;;;;;;10.30;5.80;;;;;;;0.99;66.51;99223.45;131303;1299;22580;-83
2023/11/27 13:20:40;;;;;;;16.00;7.00;;;;;;;0.92;66.83;99219.39;131603;1298;22576;-85
2023/11/27 13:23:40;;;;;;;13.10;6.30;;;;;;;0.82;66.97;99206.38;131473;1298;25478;-82
2023/11/27 13:26:41;;;;;;;10.50;6.40;;;;;;;0.69;67.05;99197.07;131567;1298;22608;-81
2023/11/27 13:29:46;;;;;;;10.50;6.30;;;;;;;0.61;67.49;99195.42;131325;1299;24253;-82
2023/11/27 13:32:47;;;;;;;11.30;6.70;;;;;;;0.57;67.92;99191.05;131338;1291;25449;-85
2023/11/27 13:35:47;;;;;;;8.90;5.90;;;;;;;0.51;67.95;99186.51;131598;1301;22616;-83
2023/11/27 13:38:49;;;;;;;11.00;6.80;;;;;;;0.47;68.18;99184.77;131470;1299;23293;-82
2023/11/27 13:41:51;;;;;;;14.50;6.80;;;;;;;0.42;68.56;99183.94;131297;1301;22557;-81
2023/11/27 13:44:52;;;;;;;14.30;8.00;;;;;;;0.40;68.71;99182.52;131463;1289;22683;-82
2023/11/27 13:47:53;;;;;;;13.00;7.40;;;;;;;0.38;68.90;99182.88;131442;1286;22592;-83
2023/11/27 13:50:56;;;;;;;15.00;8.00;;;;;;;0.36;69.04;99182.84;131410;1295;22585;-81
2023/11/27 13:53:57;;;;;;;19.10;8.30;;;;;;;0.34;69.04;99179.05;131307;1298;25542;-82
2023/11/27 13:57:01;;;;;;;11.50;7.60;;;;;;;0.31;69.08;99178.91;131311;1295;22615;-83